Time;durP1;ratioP1;P1;durP2;ratioP2;P2;SDS_P1;SDS_P2;PMS_P1;PMS_P2;Temp;Humidity;BMP_temperature;BMP_pressure;BME280_temperature;BME280_humidity;BME280_pressure;Samples;Min_cycle;Max_cycle;Signal;HPM_P1;HPM_P2
2022/12/26 00:00:26;;;;;;;;;;;18.00;60.80;;;;;;4937504;29;1292;-73
2022/12/26 00:02:51;;;;;;;;;;;18.00;60.80;;;;;;4938928;29;936;-74
2022/12/26 00:05:17;;;;;;;;;;;18.00;60.80;;;;;;4938130;29;892;-72
2022/12/26 00:07:42;;;;;;;;;;;18.00;60.80;;;;;;4938938;29;820;-71
2022/12/26 00:10:08;;;;;;;;;;;18.00;60.80;;;;;;4938785;29;1275;-73
2022/12/26 00:12:34;;;;;;;;;;;18.00;60.80;;;;;;4938533;29;963;-73
2022/12/26 00:14:59;;;;;;;;;;;18.00;60.80;;;;;;4938955;29;960;-73
2022/12/26 00:17:25;;;;;;;;;;;18.00;60.80;;;;;;4938710;29;1919;-73
2022/12/26 00:19:50;;;;;;;;;;;18.00;60.90;;;;;;4936907;29;1443;-73
2022/12/26 00:22:16;;;;;;;;;;;18.00;60.80;;;;;;4938596;29;1131;-73
2022/12/26 00:24:41;;;;;;;;;;;18.00;60.90;;;;;;4938323;29;1270;-74
2022/12/26 00:27:06;;;;;;;;;;;18.00;60.90;;;;;;4937839;29;1347;-72
2022/12/26 00:29:32;;;;;;;;;;;18.00;60.90;;;;;;4937171;29;1404;-73
2022/12/26 00:31:57;;;;;;;;;;;18.00;60.90;;;;;;4935334;29;1504;-73
2022/12/26 00:34:23;;;;;;;;;;;18.00;60.90;;;;;;4935538;29;1297;-70
2022/12/26 00:36:48;;;;;;;;;;;18.00;60.90;;;;;;4935008;29;1934;-71
2022/12/26 00:39:16;;;;;;;;;;;18.00;60.90;;;;;;4935078;29;1393;-70
2022/12/26 00:41:41;;;;;;;;;;;18.00;60.90;;;;;;4934876;29;1263;-68
2022/12/26 00:44:07;;;;;;;;;;;18.00;60.90;;;;;;4934378;29;1302;-70
2022/12/26 00:46:32;;;;;;;;;;;18.00;60.90;;;;;;4935544;29;932;-70
2022/12/26 00:48:58;;;;;;;;;;;18.00;60.90;;;;;;4950258;29;844;-72
2022/12/26 00:51:23;;;;;;;;;;;17.90;60.90;;;;;;4935230;29;1277;-71
2022/12/26 00:53:49;;;;;;;;;;;18.00;61.00;;;;;;4934177;29;955;-70
2022/12/26 00:56:14;;;;;;;;;;;17.90;61.60;;;;;;4933977;29;1954;-71
2022/12/26 00:58:40;;;;;;;;;;;17.90;60.90;;;;;;4935130;29;1215;-72
2022/12/26 01:01:11;;;;;;;;;;;17.90;60.90;;;;;;4934000;29;1259;-71
2022/12/26 01:03:38;;;;;;;;;;;18.00;61.80;;;;;;4936612;29;935;-72
2022/12/26 01:06:04;;;;;;;;;;;17.90;61.00;;;;;;4935330;29;845;-72
2022/12/26 01:08:29;;;;;;;;;;;18.00;61.00;;;;;;4917962;29;1276;-70
2022/12/26 01:10:55;;;;;;;;;;;17.90;61.00;;;;;;4934626;29;1254;-72
2022/12/26 01:13:20;;;;;;;;;;;18.00;61.00;;;;;;4933842;29;801;-71
2022/12/26 01:15:47;;;;;;;;;;;17.90;61.00;;;;;;4934892;29;1902;-72
2022/12/26 01:18:12;;;;;;;;;;;17.90;61.00;;;;;;4917873;29;1190;-72
2022/12/26 01:20:38;;;;;;;;;;;18.00;61.00;;;;;;4934678;29;1279;-71
2022/12/26 01:23:03;;;;;;;;;;;17.90;61.00;;;;;;4934975;29;870;-72
2022/12/26 01:25:28;;;;;;;;;;;18.00;61.10;;;;;;4934698;29;904;-72
2022/12/26 01:27:54;;;;;;;;;;;17.90;61.00;;;;;;4933666;29;924;-72
2022/12/26 01:30:19;;;;;;;;;;;17.90;61.10;;;;;;4933862;29;1228;-72
2022/12/26 01:32:45;;;;;;;;;;;17.90;61.10;;;;;;4935090;29;856;-72
2022/12/26 01:35:10;;;;;;;;;;;17.90;61.10;;;;;;4935425;29;823;-71
2022/12/26 01:37:36;;;;;;;;;;;17.90;61.10;;;;;;4934594;29;1974;-72
2022/12/26 01:40:01;;;;;;;;;;;17.90;61.10;;;;;;4934177;29;1394;-71
2022/12/26 01:42:33;;;;;;;;;;;17.90;61.10;;;;;;4934298;29;1279;-70
2022/12/26 01:45:00;;;;;;;;;;;17.90;61.10;;;;;;4933284;29;813;-70
2022/12/26 01:47:42;;;;;;;;;;;17.90;61.10;;;;;;4934389;29;869;-70
2022/12/26 01:50:26;;;;;;;;;;;17.90;61.20;;;;;;4933428;29;1260;-71
2022/12/26 01:52:51;;;;;;;;;;;17.90;61.20;;;;;;4934135;29;1282;-71
2022/12/26 01:55:17;;;;;;;;;;;17.90;61.10;;;;;;4933624;29;877;-70
2022/12/26 01:57:44;;;;;;;;;;;17.90;61.20;;;;;;4932889;29;1964;-71
2022/12/26 02:00:09;;;;;;;;;;;17.90;61.10;;;;;;4933863;29;1363;-72
2022/12/26 02:05:32;;;;;;;;;;;17.90;61.20;;;;;;4948543;28;1429;-71
2022/12/26 02:05:34;;;;;;;;;;;17.90;61.20;;;;;;4933990;29;961;-72
2022/12/26 02:08:10;;;;;;;;;;;17.90;61.20;;;;;;4932976;29;995;-71
2022/12/26 02:11:06;;;;;;;;;;;17.90;62.00;;;;;;4949238;28;1289;-72
2022/12/26 02:13:33;;;;;;;;;;;17.90;61.20;;;;;;4932898;29;1618;-72
2022/12/26 02:15:58;;;;;;;;;;;17.90;61.20;;;;;;4932683;29;1912;-72
2022/12/26 02:18:24;;;;;;;;;;;17.90;61.20;;;;;;4933516;29;844;-72
2022/12/26 02:20:57;;;;;;;;;;;17.90;61.20;;;;;;4933615;29;1276;-72
2022/12/26 02:23:38;;;;;;;;;;;17.90;61.30;;;;;;4915800;29;1431;-72
2022/12/26 02:26:15;;;;;;;;;;;17.90;61.20;;;;;;4932557;29;1184;-72
2022/12/26 02:28:47;;;;;;;;;;;17.90;61.30;;;;;;4931653;29;920;-70
2022/12/26 02:31:24;;;;;;;;;;;17.90;61.30;;;;;;4933504;29;1362;-72
2022/12/26 02:33:49;;;;;;;;;;;17.80;61.30;;;;;;4931372;29;821;-72
2022/12/26 02:36:37;;;;;;;;;;;17.90;61.30;;;;;;4933530;29;1978;-72
2022/12/26 02:39:32;;;;;;;;;;;17.80;61.20;;;;;;4931429;29;1463;-71
2022/12/26 02:42:03;;;;;;;;;;;17.90;61.30;;;;;;4928886;29;1338;-73
2022/12/26 02:47:40;;;;;;;;;;;17.80;61.20;;;;;;4933648;29;773;-73
2022/12/26 03:13:09;;;;;;;;;;;17.80;61.30;;;;;;4932185;29;783;-74
2022/12/26 03:17:18;;;;;;;;;;;17.80;61.30;;;;;;4931816;29;1887;-74
2022/12/26 03:18:21;;;;;;;;;;;17.80;61.40;;;;;;4932205;29;1256;-74
2022/12/26 03:20:47;;;;;;;;;;;17.80;61.40;;;;;;4931888;29;1272;-74
2022/12/26 03:23:13;;;;;;;;;;;17.80;61.30;;;;;;4932285;29;1284;-73
2022/12/26 03:28:29;;;;;;;;;;;17.80;61.30;;;;;;4933115;29;780;-73
2022/12/26 03:30:55;;;;;;;;;;;17.80;61.40;;;;;;4932960;29;1272;-73
2022/12/26 03:36:05;;;;;;;;;;;17.80;61.40;;;;;;4932758;29;1962;-71
2022/12/26 03:38:49;;;;;;;;;;;17.80;61.40;;;;;;4931360;29;1428;-71
2022/12/26 04:19:22;;;;;;;;;;;17.80;61.40;;;;;;4931346;29;799;-72
2022/12/26 04:44:06;;;;;;;;;;;17.80;61.50;;;;;;4933948;29;796;-73
2022/12/26 04:46:33;;;;;;;;;;;17.80;61.50;;;;;;4933697;29;817;-71
2022/12/26 04:51:42;;;;;;;;;;;17.80;61.60;;;;;;4933189;29;1347;-72
2022/12/26 04:54:08;;;;;;;;;;;17.80;61.60;;;;;;4934887;29;940;-72
2022/12/26 04:56:33;;;;;;;;;;;17.80;61.60;;;;;;4933867;29;1981;-73
2022/12/26 04:58:59;;;;;;;;;;;17.80;61.60;;;;;;4933536;29;848;-72
2022/12/26 05:09:40;;;;;;;;;;;17.80;61.50;;;;;;4934259;29;1392;-74
2022/12/26 05:12:06;;;;;;;;;;;17.80;61.50;;;;;;4934976;29;1737;-74
2022/12/26 05:14:34;;;;;;;;;;;17.80;61.50;;;;;;4935296;29;990;-73
2022/12/26 05:30:50;;;;;;;;;;;17.90;61.20;;;;;;4933470;29;1389;-70
2022/12/26 05:36:00;;;;;;;;;;;17.90;61.00;;;;;;4934411;29;1927;-72
2022/12/26 05:38:25;;;;;;;;;;;17.90;60.90;;;;;;4933302;29;1326;-72
2022/12/26 05:40:51;;;;;;;;;;;18.00;60.90;;;;;;4934297;29;1359;-72
2022/12/26 05:43:18;;;;;;;;;;;18.00;60.80;;;;;;4934401;29;967;-72
2022/12/26 05:45:44;;;;;;;;;;;18.00;60.80;;;;;;4933641;29;1829;-73
2022/12/26 05:48:09;;;;;;;;;;;18.00;60.70;;;;;;4934122;29;1453;-70
2022/12/26 05:50:35;;;;;;;;;;;18.10;60.60;;;;;;4932606;29;1349;-70
2022/12/26 05:53:00;;;;;;;;;;;18.20;60.50;;;;;;4933243;29;1368;-70
2022/12/26 05:55:26;;;;;;;;;;;18.30;60.20;;;;;;4931984;29;1180;-71
2022/12/26 05:57:52;;;;;;;;;;;18.40;60.10;;;;;;4947702;29;2111;-71
2022/12/26 06:00:17;;;;;;;;;;;18.50;59.90;;;;;;4932539;29;1351;-72
2022/12/26 06:02:43;;;;;;;;;;;18.60;59.80;;;;;;4940371;23;2346;-67
2022/12/26 06:05:08;;;;;;;;;;;18.70;59.60;;;;;;4949443;28;3392;-71
2022/12/26 06:07:34;;;;;;;;;;;18.80;59.30;;;;;;4986328;28;1255;-73
2022/12/26 06:09:59;;;;;;;;;;;18.90;59.10;;;;;;4971783;28;1559;-71
2022/12/26 06:12:25;;;;;;;;;;;19.10;59.00;;;;;;4956673;28;4404;-75
2022/12/26 06:14:50;;;;;;;;;;;19.10;58.70;;;;;;4945525;28;4419;-74
2022/12/26 06:17:16;;;;;;;;;;;19.20;58.50;;;;;;4967636;28;7299;-74
2022/12/26 06:19:41;;;;;;;;;;;19.30;58.30;;;;;;4959905;28;4034;-75
2022/12/26 06:22:07;;;;;;;;;;;19.40;58.10;;;;;;4975354;28;1375;-76
2022/12/26 06:24:32;;;;;;;;;;;19.40;57.90;;;;;;4976642;28;1245;-77
2022/12/26 06:26:57;;;;;;;;;;;19.50;57.80;;;;;;4971634;28;939;-72
2022/12/26 06:29:23;;;;;;;;;;;19.50;57.60;;;;;;4971084;28;848;-73
2022/12/26 06:31:48;;;;;;;;;;;19.60;57.60;;;;;;4970747;28;1307;-73
2022/12/26 06:34:14;;;;;;;;;;;19.70;57.50;;;;;;4970826;28;975;-73
2022/12/26 06:36:39;;;;;;;;;;;19.70;57.30;;;;;;4971947;28;1979;-75
2022/12/26 06:39:05;;;;;;;;;;;19.70;57.20;;;;;;4970309;28;1139;-71
2022/12/26 06:41:30;;;;;;;;;;;19.80;57.20;;;;;;4969241;28;1391;-70
2022/12/26 06:43:56;;;;;;;;;;;19.80;57.10;;;;;;4970947;28;1796;-70
2022/12/26 06:46:22;;;;;;;;;;;19.90;57.10;;;;;;4970534;28;889;-69
2022/12/26 06:48:48;;;;;;;;;;;19.90;57.00;;;;;;4970611;28;821;-71
2022/12/26 06:51:15;;;;;;;;;;;19.90;56.90;;;;;;4971456;28;1228;-70
2022/12/26 06:53:40;;;;;;;;;;;19.90;56.80;;;;;;4970296;28;814;-74
2022/12/26 06:56:06;;;;;;;;;;;20.00;56.80;;;;;;4968130;28;1903;-69
2022/12/26 06:58:32;;;;;;;;;;;20.00;56.70;;;;;;4970048;28;869;-70
2022/12/26 07:01:04;;;;;;;;;;;20.00;56.70;;;;;;4970883;28;1264;-70
2022/12/26 07:03:30;;;;;;;;;;;20.10;56.70;;;;;;4970286;28;1128;-70
2022/12/26 07:05:55;;;;;;;;;;;20.10;56.70;;;;;;4971372;28;849;-71
2022/12/26 07:08:21;;;;;;;;;;;20.10;56.60;;;;;;4971067;28;951;-71
2022/12/26 07:10:46;;;;;;;;;;;20.20;56.60;;;;;;4950754;28;4545;-72
2022/12/26 07:13:11;;;;;;;;;;;20.20;56.60;;;;;;4971376;28;916;-71
2022/12/26 07:15:37;;;;;;;;;;;20.20;56.50;;;;;;4969920;28;1078;-71
2022/12/26 07:18:03;;;;;;;;;;;20.20;56.50;;;;;;4970165;28;1959;-69
2022/12/26 07:20:28;;;;;;;;;;;20.20;56.50;;;;;;4970898;28;1366;-69
2022/12/26 07:22:54;;;;;;;;;;;20.30;56.50;;;;;;4971281;28;896;-68
2022/12/26 07:25:19;;;;;;;;;;;20.30;56.50;;;;;;4971409;28;868;-67
2022/12/26 07:27:45;;;;;;;;;;;20.30;56.40;;;;;;4971162;28;821;-67
2022/12/26 07:30:10;;;;;;;;;;;20.30;56.40;;;;;;4970691;28;1358;-69
2022/12/26 07:32:36;;;;;;;;;;;20.30;56.30;;;;;;4969943;28;844;-69
2022/12/26 07:35:01;;;;;;;;;;;20.30;56.30;;;;;;4971363;28;1069;-69
2022/12/26 07:37:27;;;;;;;;;;;20.40;56.30;;;;;;4970985;28;1967;-68
2022/12/26 07:39:52;;;;;;;;;;;20.40;56.30;;;;;;4970801;28;1267;-72
2022/12/26 07:42:18;;;;;;;;;;;20.40;56.20;;;;;;4974272;28;975;-72
2022/12/26 07:44:44;;;;;;;;;;;20.40;56.30;;;;;;4973025;28;852;-72
2022/12/26 07:47:09;;;;;;;;;;;20.50;56.30;;;;;;4975308;28;938;-71
2022/12/26 07:49:35;;;;;;;;;;;20.50;56.30;;;;;;4973525;28;1340;-72
2022/12/26 07:52:01;;;;;;;;;;;20.50;56.30;;;;;;4975032;28;878;-73
2022/12/26 07:54:28;;;;;;;;;;;20.50;56.20;;;;;;4974751;28;933;-73
2022/12/26 07:56:54;;;;;;;;;;;20.50;56.20;;;;;;4973584;28;1975;-72
2022/12/26 07:59:20;;;;;;;;;;;20.50;56.20;;;;;;4973760;28;1962;-72
2022/12/26 08:01:45;;;;;;;;;;;20.50;56.20;;;;;;4974597;28;1234;-71
2022/12/26 08:04:11;;;;;;;;;;;20.50;56.20;;;;;;4971504;28;1972;-71
2022/12/26 08:06:36;;;;;;;;;;;20.60;56.20;;;;;;4974583;28;1425;-69
2022/12/26 08:09:02;;;;;;;;;;;20.60;56.20;;;;;;4973421;28;1234;-70
2022/12/26 08:11:28;;;;;;;;;;;20.60;56.20;;;;;;4973291;28;1611;-70
2022/12/26 08:13:53;;;;;;;;;;;20.60;56.20;;;;;;4972844;28;1174;-71
2022/12/26 08:16:19;;;;;;;;;;;20.60;56.20;;;;;;4973960;28;1961;-70
2022/12/26 08:18:44;;;;;;;;;;;20.60;56.20;;;;;;4974092;28;1078;-73
2022/12/26 08:21:10;;;;;;;;;;;20.60;56.30;;;;;;4972352;28;1326;-72
2022/12/26 08:23:36;;;;;;;;;;;20.60;56.20;;;;;;4972928;28;1578;-72
2022/12/26 08:26:09;;;;;;;;;;;20.60;56.20;;;;;;4973898;28;1590;-71
2022/12/26 08:28:34;;;;;;;;;;;20.60;56.30;;;;;;4973663;28;1289;-71
2022/12/26 08:31:03;;;;;;;;;;;20.60;56.20;;;;;;4956287;28;1386;-71
2022/12/26 08:33:28;;;;;;;;;;;20.60;56.20;;;;;;4988781;28;1428;-71
2022/12/26 08:35:54;;;;;;;;;;;20.60;56.30;;;;;;4974210;28;1906;-71
2022/12/26 08:38:19;;;;;;;;;;;20.60;56.20;;;;;;4974227;28;911;-73
2022/12/26 08:40:51;;;;;;;;;;;20.70;56.30;;;;;;4974160;28;1304;-71
2022/12/26 08:43:17;;;;;;;;;;;20.70;56.30;;;;;;4972524;28;1482;-73
2022/12/26 08:45:42;;;;;;;;;;;20.70;56.30;;;;;;4975192;28;1585;-72
2022/12/26 08:48:08;;;;;;;;;;;20.70;56.30;;;;;;4974313;28;1342;-74
2022/12/26 08:50:33;;;;;;;;;;;20.70;56.30;;;;;;4972304;28;1285;-71
2022/12/26 08:52:58;;;;;;;;;;;20.70;56.30;;;;;;4972797;28;1718;-72
2022/12/26 08:55:24;;;;;;;;;;;20.70;56.30;;;;;;4973496;28;1284;-72
2022/12/26 08:57:49;;;;;;;;;;;20.70;56.20;;;;;;4973151;28;1911;-72
2022/12/26 09:00:15;;;;;;;;;;;20.70;56.20;;;;;;4973833;28;1534;-74
2022/12/26 09:02:40;;;;;;;;;;;20.70;56.30;;;;;;4973988;28;1393;-72
2022/12/26 09:05:06;;;;;;;;;;;20.70;56.20;;;;;;4974182;28;1282;-73
2022/12/26 09:07:31;;;;;;;;;;;20.70;56.20;;;;;;4974337;28;1547;-72
2022/12/26 09:09:57;;;;;;;;;;;20.70;56.20;;;;;;4973733;28;1371;-72
2022/12/26 09:12:22;;;;;;;;;;;20.70;56.20;;;;;;4973268;28;1207;-72
2022/12/26 09:14:48;;;;;;;;;;;20.70;56.20;;;;;;4973527;28;1059;-73
2022/12/26 09:17:13;;;;;;;;;;;20.80;56.20;;;;;;4973376;28;1972;-73
2022/12/26 09:19:39;;;;;;;;;;;20.80;56.20;;;;;;4973372;28;1303;-73
2022/12/26 09:24:49;;;;;;;;;;;20.80;56.20;;;;;;4974128;28;1172;-73
2022/12/26 09:27:14;;;;;;;;;;;20.80;56.20;;;;;;4972273;28;874;-72
2022/12/26 09:29:39;;;;;;;;;;;20.80;56.20;;;;;;4971820;28;1254;-72
2022/12/26 09:32:05;;;;;;;;;;;20.80;56.20;;;;;;4972020;28;852;-72
2022/12/26 09:34:30;;;;;;;;;;;20.80;56.20;;;;;;4973204;28;884;-72
2022/12/26 09:36:56;;;;;;;;;;;20.80;56.10;;;;;;4971880;28;1898;-71
2022/12/26 09:39:21;;;;;;;;;;;20.90;56.10;;;;;;4972610;28;1299;-72
2022/12/26 09:41:56;;;;;;;;;;;20.90;56.10;;;;;;4973479;28;1430;-73
2022/12/26 09:44:21;;;;;;;;;;;20.90;56.10;;;;;;4972901;28;828;-73
2022/12/26 09:46:56;;;;;;;;;;;20.90;56.10;;;;;;4972780;28;884;-73
2022/12/26 09:49:23;;;;;;;;;;;20.90;56.00;;;;;;4971540;28;1191;-73
2022/12/26 09:51:50;;;;;;;;;;;20.90;56.00;;;;;;4970889;28;1750;-73
2022/12/26 09:54:23;;;;;;;;;;;20.90;56.00;;;;;;4973004;28;896;-72
2022/12/26 09:56:49;;;;;;;;;;;21.00;56.00;;;;;;4954279;28;1907;-73
2022/12/26 09:59:18;;;;;;;;;;;21.00;56.00;;;;;;4971456;28;894;-71
2022/12/26 10:01:43;;;;;;;;;;;21.00;55.90;;;;;;4971487;28;1268;-71
2022/12/26 10:04:18;;;;;;;;;;;21.00;55.90;;;;;;4971645;28;1413;-71
2022/12/26 10:06:48;;;;;;;;;;;21.00;55.90;;;;;;4970693;28;817;-71
2022/12/26 10:09:13;;;;;;;;;;;21.00;55.80;;;;;;4970740;28;1257;-71
2022/12/26 10:11:48;;;;;;;;;;;21.10;55.80;;;;;;4972990;28;1269;-72
2022/12/26 10:14:20;;;;;;;;;;;21.10;55.80;;;;;;4971468;28;876;-71
2022/12/26 10:16:48;;;;;;;;;;;21.10;55.80;;;;;;4972016;28;1938;-71
2022/12/26 10:19:32;;;;;;;;;;;21.10;55.80;;;;;;4971002;28;853;-71
2022/12/26 10:22:24;;;;;;;;;;;21.10;55.80;;;;;;4974310;28;884;-70
2022/12/26 10:24:50;;;;;;;;;;;21.10;55.80;;;;;;4964407;28;1345;-71
2022/12/26 10:27:16;;;;;;;;;;;21.10;55.80;;;;;;4967208;28;1314;-70
2022/12/26 10:29:49;;;;;;;;;;;21.10;55.90;;;;;;4970422;28;1323;-71
2022/12/26 10:32:35;;;;;;;;;;;21.10;55.90;;;;;;4973229;28;862;-71
2022/12/26 10:35:01;;;;;;;;;;;21.10;56.00;;;;;;4971828;28;998;-70
2022/12/26 10:37:26;;;;;;;;;;;21.10;56.10;;;;;;4971685;28;1902;-70
2022/12/26 10:39:55;;;;;;;;;;;21.00;56.00;;;;;;4972088;28;1420;-71
2022/12/26 10:42:20;;;;;;;;;;;21.00;56.10;;;;;;4972427;28;826;-70
2022/12/26 10:44:45;;;;;;;;;;;21.10;56.10;;;;;;4972447;28;824;-70
2022/12/26 10:47:19;;;;;;;;;;;21.10;56.10;;;;;;4972164;28;847;-70
2022/12/26 10:49:46;;;;;;;;;;;21.10;56.10;;;;;;4970033;28;1236;-71
2022/12/26 10:52:11;;;;;;;;;;;21.10;56.00;;;;;;4971962;28;939;-70
2022/12/26 10:54:36;;;;;;;;;;;21.10;56.00;;;;;;4970600;28;916;-73
2022/12/26 10:57:02;;;;;;;;;;;21.10;55.90;;;;;;4970375;28;1903;-72
2022/12/26 10:59:35;;;;;;;;;;;21.10;55.90;;;;;;4953851;28;1283;-72
2022/12/26 11:02:10;;;;;;;;;;;21.20;55.90;;;;;;4969614;28;900;-72
2022/12/26 11:04:35;;;;;;;;;;;21.20;55.80;;;;;;4971626;28;1374;-72
2022/12/26 11:07:01;;;;;;;;;;;21.20;55.80;;;;;;4959545;28;1268;-72
2022/12/26 11:09:40;;;;;;;;;;;21.20;55.80;;;;;;4969768;28;1342;-72
2022/12/26 11:12:05;;;;;;;;;;;21.20;55.90;;;;;;4970511;28;871;-72
2022/12/26 11:14:35;;;;;;;;;;;21.20;55.80;;;;;;4953560;28;1200;-72
2022/12/26 11:17:08;;;;;;;;;;;21.20;55.80;;;;;;4968701;28;1966;-72
2022/12/26 11:19:34;;;;;;;;;;;21.20;55.70;;;;;;4969888;28;1322;-72
2022/12/26 11:22:19;;;;;;;;;;;21.30;55.80;;;;;;4954269;28;1173;-72
2022/12/26 11:24:44;;;;;;;;;;;21.30;55.80;;;;;;4971586;28;975;-72
2022/12/26 11:27:17;;;;;;;;;;;21.30;55.80;;;;;;4970663;28;864;-73
2022/12/26 11:29:43;;;;;;;;;;;21.30;55.80;;;;;;4969707;28;1259;-71
2022/12/26 11:32:12;;;;;;;;;;;21.30;55.80;;;;;;4971382;28;904;-71
2022/12/26 11:34:44;;;;;;;;;;;21.30;55.80;;;;;;4970066;28;1412;-70
2022/12/26 11:37:26;;;;;;;;;;;21.30;55.80;;;;;;4970609;28;1958;-70
2022/12/26 11:39:51;;;;;;;;;;;21.30;55.90;;;;;;4969622;28;1363;-70
2022/12/26 11:42:18;;;;;;;;;;;21.30;55.80;;;;;;4969947;28;1038;-70
2022/12/26 11:44:44;;;;;;;;;;;21.30;55.80;;;;;;4970145;28;1366;-70
2022/12/26 11:47:13;;;;;;;;;;;21.30;55.80;;;;;;4969997;28;948;-71
2022/12/26 11:49:38;;;;;;;;;;;21.30;55.90;;;;;;4970196;28;1328;-70
2022/12/26 11:52:23;;;;;;;;;;;21.30;55.90;;;;;;4969935;28;1275;-71
2022/12/26 11:54:49;;;;;;;;;;;21.30;55.90;;;;;;4971244;28;963;-70
2022/12/26 11:57:19;;;;;;;;;;;21.30;55.90;;;;;;4969877;28;1973;-70
2022/12/26 11:59:44;;;;;;;;;;;21.30;55.90;;;;;;4969829;28;1268;-72
2022/12/26 12:02:13;;;;;;;;;;;21.30;55.90;;;;;;4967210;28;1142;-72
2022/12/26 12:04:38;;;;;;;;;;;21.30;55.90;;;;;;4969803;28;1341;-72
2022/12/26 12:07:28;;;;;;;;;;;21.30;55.90;;;;;;4969670;28;920;-72
2022/12/26 12:09:54;;;;;;;;;;;21.30;55.90;;;;;;4963456;28;1386;-72
2022/12/26 12:12:34;;;;;;;;;;;21.30;55.90;;;;;;4969987;28;1031;-72
2022/12/26 12:15:00;;;;;;;;;;;21.30;55.90;;;;;;4969455;28;1023;-72
2022/12/26 12:17:29;;;;;;;;;;;21.30;56.00;;;;;;4970253;28;1980;-72
2022/12/26 12:20:13;;;;;;;;;;;21.30;56.00;;;;;;4969673;28;1899;-71
2022/12/26 12:22:57;;;;;;;;;;;21.30;56.10;;;;;;4971759;28;1114;-71
2022/12/26 12:25:25;;;;;;;;;;;21.20;56.10;;;;;;4970575;28;911;-71
2022/12/26 12:27:59;;;;;;;;;;;21.20;56.10;;;;;;4970509;28;915;-71
2022/12/26 12:30:32;;;;;;;;;;;21.20;56.20;;;;;;4975017;28;1212;-71
2022/12/26 12:33:16;;;;;;;;;;;21.20;56.20;;;;;;4973390;28;905;-71
2022/12/26 12:35:44;;;;;;;;;;;21.20;56.30;;;;;;4973780;28;877;-71
2022/12/26 12:38:27;;;;;;;;;;;21.20;56.30;;;;;;4972095;28;1934;-71
2022/12/26 12:40:53;;;;;;;;;;;21.20;56.90;;;;;;4971759;28;1509;-71
2022/12/26 12:43:20;;;;;;;;;;;21.20;56.30;;;;;;4973699;28;1317;-71
2022/12/26 12:45:52;;;;;;;;;;;21.20;56.20;;;;;;4973642;28;1380;-71
2022/12/26 12:48:40;;;;;;;;;;;21.20;56.20;;;;;;4971215;28;1865;-71
2022/12/26 12:51:24;;;;;;;;;;;21.20;56.20;;;;;;4970683;28;1381;-71
2022/12/26 12:54:13;;;;;;;;;;;21.20;56.20;;;;;;4973679;28;1344;-71
2022/12/26 12:56:56;;;;;;;;;;;21.30;56.20;;;;;;4973382;28;1898;-71
2022/12/26 12:59:25;;;;;;;;;;;21.30;56.20;;;;;;4972763;28;934;-71
2022/12/26 13:01:51;;;;;;;;;;;21.30;56.20;;;;;;4972872;28;1373;-71
2022/12/26 13:04:18;;;;;;;;;;;21.30;56.20;;;;;;4957638;28;1460;-71
2022/12/26 13:06:45;;;;;;;;;;;21.30;56.20;;;;;;4974267;28;804;-70
2022/12/26 13:09:24;;;;;;;;;;;21.30;56.10;;;;;;4972924;28;1243;-71
2022/12/26 13:11:52;;;;;;;;;;;21.30;56.10;;;;;;4972338;28;1402;-71
2022/12/26 13:14:25;;;;;;;;;;;21.30;56.10;;;;;;4952952;28;1475;-71
2022/12/26 13:16:52;;;;;;;;;;;21.30;56.10;;;;;;4971758;28;1906;-71
2022/12/26 13:19:19;;;;;;;;;;;21.40;56.20;;;;;;4972259;28;1408;-71
2022/12/26 13:21:45;;;;;;;;;;;21.40;56.10;;;;;;4972152;28;1352;-72
2022/12/26 13:24:24;;;;;;;;;;;21.30;56.10;;;;;;4972100;28;885;-72
2022/12/26 13:27:08;;;;;;;;;;;21.30;56.10;;;;;;4972600;28;955;-72
2022/12/26 13:29:38;;;;;;;;;;;21.30;56.70;;;;;;4973853;28;1390;-72
2022/12/26 13:32:04;;;;;;;;;;;21.40;56.10;;;;;;4971500;28;915;-72
2022/12/26 13:34:29;;;;;;;;;;;21.40;56.10;;;;;;4973925;28;881;-72
2022/12/26 13:36:55;;;;;;;;;;;21.40;56.10;;;;;;4972378;28;1906;-72
2022/12/26 13:39:24;;;;;;;;;;;21.40;56.10;;;;;;4971814;28;920;-72
2022/12/26 13:44:37;;;;;;;;;;;21.40;56.00;;;;;;4972122;28;800;-72
2022/12/26 13:47:03;;;;;;;;;;;21.50;56.00;;;;;;4970887;28;1221;-71
2022/12/26 13:49:35;;;;;;;;;;;21.50;56.00;;;;;;4971139;28;1370;-71
2022/12/26 13:52:09;;;;;;;;;;;21.50;56.00;;;;;;4970945;28;852;-74
2022/12/26 13:54:35;;;;;;;;;;;21.50;55.90;;;;;;4972345;28;2100;-71
2022/12/26 13:57:10;;;;;;;;;;;21.50;55.90;;;;;;4971440;28;1907;-69
2022/12/26 13:59:38;;;;;;;;;;;21.50;55.90;;;;;;4969632;28;1343;-69
2022/12/26 14:02:13;;;;;;;;;;;21.50;55.80;;;;;;4970006;28;849;-69
2022/12/26 14:05:04;;;;;;;;;;;21.50;55.80;;;;;;4972175;28;1306;-71
2022/12/26 14:07:37;;;;;;;;;;;21.60;55.80;;;;;;4970405;28;1197;-72
2022/12/26 14:10:04;;;;;;;;;;;21.60;55.80;;;;;;4967504;28;1293;-71
2022/12/26 14:12:35;;;;;;;;;;;21.60;55.80;;;;;;4972426;28;877;-72
2022/12/26 14:15:04;;;;;;;;;;;21.60;55.80;;;;;;4971243;28;928;-71
2022/12/26 14:17:56;;;;;;;;;;;21.60;55.70;;;;;;4970079;28;1922;-72
2022/12/26 14:20:24;;;;;;;;;;;21.60;55.70;;;;;;4947682;28;1899;-70
2022/12/26 14:22:53;;;;;;;;;;;21.60;55.70;;;;;;4970834;28;805;-72
2022/12/26 14:25:21;;;;;;;;;;;21.60;55.60;;;;;;4971426;28;842;-71
2022/12/26 14:27:52;;;;;;;;;;;21.60;55.60;;;;;;4970471;28;1382;-72
2022/12/26 14:30:19;;;;;;;;;;;21.70;55.70;;;;;;4944444;28;1284;-74
2022/12/26 14:33:08;;;;;;;;;;;21.60;55.60;;;;;;4970930;28;1013;-73
2022/12/26 14:35:40;;;;;;;;;;;21.70;55.60;;;;;;4944295;28;1304;-73
2022/12/26 14:38:18;;;;;;;;;;;21.70;55.60;;;;;;4955159;28;1899;-72
2022/12/26 14:41:00;;;;;;;;;;;21.70;55.60;;;;;;4970527;28;1359;-73
2022/12/26 14:43:29;;;;;;;;;;;21.70;55.60;;;;;;4970507;28;812;-72
2022/12/26 14:45:56;;;;;;;;;;;21.70;55.50;;;;;;4971966;28;999;-72
2022/12/26 14:48:21;;;;;;;;;;;21.70;55.50;;;;;;4970960;28;904;-71
2022/12/26 14:50:56;;;;;;;;;;;21.70;55.50;;;;;;4971517;28;1420;-72
2022/12/26 14:53:27;;;;;;;;;;;21.70;55.50;;;;;;4971622;28;892;-71
2022/12/26 14:55:59;;;;;;;;;;;21.70;55.50;;;;;;4970015;28;1122;-72
2022/12/26 14:58:24;;;;;;;;;;;21.70;55.50;;;;;;4971601;28;1890;-72
2022/12/26 15:00:50;;;;;;;;;;;21.80;55.50;;;;;;4969956;28;1245;-71
2022/12/26 15:03:19;;;;;;;;;;;21.80;55.50;;;;;;4971138;28;1297;-71
2022/12/26 15:05:44;;;;;;;;;;;21.80;55.50;;;;;;4971415;28;916;-72
2022/12/26 15:08:36;;;;;;;;;;;21.80;55.50;;;;;;4971029;28;1176;-72
2022/12/26 15:11:11;;;;;;;;;;;21.80;55.50;;;;;;4967408;28;1425;-73
2022/12/26 15:13:55;;;;;;;;;;;21.70;55.50;;;;;;4969184;28;1469;-72
2022/12/26 15:16:37;;;;;;;;;;;21.70;55.60;;;;;;4969048;28;1977;-72
2022/12/26 15:19:08;;;;;;;;;;;21.70;55.60;;;;;;4952232;28;829;-72
2022/12/26 15:21:57;;;;;;;;;;;21.70;55.70;;;;;;4970709;28;1358;-72
2022/12/26 15:24:38;;;;;;;;;;;21.70;55.80;;;;;;4970683;28;872;-72
2022/12/26 15:27:14;;;;;;;;;;;21.60;55.80;;;;;;4971506;28;1353;-72
2022/12/26 15:29:51;;;;;;;;;;;21.70;55.90;;;;;;4970927;28;1372;-72
2022/12/26 15:32:19;;;;;;;;;;;21.60;55.80;;;;;;4972207;28;943;-72
2022/12/26 15:34:49;;;;;;;;;;;21.70;55.90;;;;;;4971214;28;875;-72
2022/12/26 15:37:33;;;;;;;;;;;21.70;55.80;;;;;;4971607;28;1890;-73
2022/12/26 15:40:04;;;;;;;;;;;21.60;55.80;;;;;;4970752;28;1269;-73
2022/12/26 15:42:43;;;;;;;;;;;21.70;55.90;;;;;;4971336;28;808;-72
2022/12/26 15:45:15;;;;;;;;;;;21.70;55.80;;;;;;4953433;28;1252;-72
2022/12/26 15:47:55;;;;;;;;;;;21.70;55.90;;;;;;4971816;28;1348;-72
2022/12/26 15:50:36;;;;;;;;;;;21.70;55.80;;;;;;4970497;28;1264;-72
2022/12/26 15:53:17;;;;;;;;;;;21.60;55.80;;;;;;4970912;28;858;-72
2022/12/26 15:55:58;;;;;;;;;;;21.70;55.90;;;;;;4970817;28;1531;-72
2022/12/26 15:58:46;;;;;;;;;;;21.60;55.80;;;;;;4969098;28;1895;-72
2022/12/26 16:01:12;;;;;;;;;;;21.70;55.80;;;;;;4933005;28;1273;-72
2022/12/26 16:03:38;;;;;;;;;;;21.70;55.80;;;;;;4956754;28;1087;-72
2022/12/26 16:06:06;;;;;;;;;;;21.70;55.80;;;;;;4974728;28;848;-72
2022/12/26 16:08:53;;;;;;;;;;;21.70;55.80;;;;;;4974386;28;1000;-72
2022/12/26 16:11:19;;;;;;;;;;;21.70;55.80;;;;;;4972300;28;1415;-72
2022/12/26 16:13:55;;;;;;;;;;;21.70;55.80;;;;;;4973978;28;1089;-72
2022/12/26 16:16:25;;;;;;;;;;;21.70;55.80;;;;;;4972952;28;1903;-72
2022/12/26 16:18:50;;;;;;;;;;;21.70;55.80;;;;;;4953624;28;1281;-71
2022/12/26 16:24:00;;;;;;;;;;;21.80;55.80;;;;;;4973217;28;828;-70
2022/12/26 16:26:27;;;;;;;;;;;21.80;55.80;;;;;;4953564;28;1187;-72
2022/12/26 16:28:53;;;;;;;;;;;21.80;55.80;;;;;;4970669;28;1314;-72
2022/12/26 16:31:20;;;;;;;;;;;21.70;55.90;;;;;;4972455;28;1359;-73
2022/12/26 16:33:46;;;;;;;;;;;21.70;55.90;;;;;;4972524;28;1192;-71
2022/12/26 16:36:17;;;;;;;;;;;21.70;56.00;;;;;;4973346;28;1926;-72
2022/12/26 16:38:43;;;;;;;;;;;21.60;56.00;;;;;;4973047;28;992;-71
2022/12/26 16:41:27;;;;;;;;;;;21.70;56.00;;;;;;4961895;28;4395;-69
2022/12/26 16:43:53;;;;;;;;;;;21.60;56.00;;;;;;4966866;28;4698;-72
2022/12/26 16:46:27;;;;;;;;;;;21.60;56.00;;;;;;4972664;28;888;-71
2022/12/26 16:48:59;;;;;;;;;;;21.70;56.10;;;;;;4973177;28;820;-73
2022/12/26 16:51:33;;;;;;;;;;;21.60;56.00;;;;;;4972910;28;1358;-71
2022/12/26 16:54:22;;;;;;;;;;;21.70;56.10;;;;;;4974455;28;951;-75